sensor_id;sensor_type;location;lat;lon;timestamp;temperature;humidity
4578;DHT22;2301;47.354;8.528;2023-03-03T00:01:11;8.70;84.30
4578;DHT22;2301;47.354;8.528;2023-03-03T00:03:39;8.60;84.00
4578;DHT22;2301;47.354;8.528;2023-03-03T00:06:09;8.70;83.90
4578;DHT22;2301;47.354;8.528;2023-03-03T00:08:36;8.70;83.50
4578;DHT22;2301;47.354;8.528;2023-03-03T00:11:03;8.70;83.40
4578;DHT22;2301;47.354;8.528;2023-03-03T00:13:40;8.70;83.60
4578;DHT22;2301;47.354;8.528;2023-03-03T00:16:22;8.70;82.80
4578;DHT22;2301;47.354;8.528;2023-03-03T00:18:51;8.70;83.50
4578;DHT22;2301;47.354;8.528;2023-03-03T00:21:24;8.80;83.60
4578;DHT22;2301;47.354;8.528;2023-03-03T00:23:54;8.90;83.40
4578;DHT22;2301;47.354;8.528;2023-03-03T00:26:24;8.90;82.90
4578;DHT22;2301;47.354;8.528;2023-03-03T00:28:52;8.90;82.80
4578;DHT22;2301;47.354;8.528;2023-03-03T00:31:28;8.90;82.50
4578;DHT22;2301;47.354;8.528;2023-03-03T00:34:02;8.90;81.60
4578;DHT22;2301;47.354;8.528;2023-03-03T00:36:38;8.90;82.10
4578;DHT22;2301;47.354;8.528;2023-03-03T00:39:21;8.90;82.60
4578;DHT22;2301;47.354;8.528;2023-03-03T00:41:50;8.90;82.60
4578;DHT22;2301;47.354;8.528;2023-03-03T00:44:40;8.90;82.60
4578;DHT22;2301;47.354;8.528;2023-03-03T00:47:27;9.00;82.80
4578;DHT22;2301;47.354;8.528;2023-03-03T00:50:17;9.00;82.10
4578;DHT22;2301;47.354;8.528;2023-03-03T00:52:57;9.00;81.50
4578;DHT22;2301;47.354;8.528;2023-03-03T00:55:25;9.00;81.90
4578;DHT22;2301;47.354;8.528;2023-03-03T00:57:52;9.10;82.10
4578;DHT22;2301;47.354;8.528;2023-03-03T01:00:19;9.20;82.10
4578;DHT22;2301;47.354;8.528;2023-03-03T01:02:46;9.30;81.50
4578;DHT22;2301;47.354;8.528;2023-03-03T01:05:15;9.30;80.80
4578;DHT22;2301;47.354;8.528;2023-03-03T01:07:42;9.30;80.70
4578;DHT22;2301;47.354;8.528;2023-03-03T01:10:10;9.40;80.60
4578;DHT22;2301;47.354;8.528;2023-03-03T01:12:37;9.30;80.00
4578;DHT22;2301;47.354;8.528;2023-03-03T01:15:05;9.30;79.70
4578;DHT22;2301;47.354;8.528;2023-03-03T01:17:33;9.20;79.60
4578;DHT22;2301;47.354;8.528;2023-03-03T01:20:00;9.30;80.20
4578;DHT22;2301;47.354;8.528;2023-03-03T01:22:28;9.30;80.20
4578;DHT22;2301;47.354;8.528;2023-03-03T01:24:55;9.30;80.00
4578;DHT22;2301;47.354;8.528;2023-03-03T01:27:22;9.30;80.00
4578;DHT22;2301;47.354;8.528;2023-03-03T01:29:48;9.40;80.20
4578;DHT22;2301;47.354;8.528;2023-03-03T01:32:15;9.40;80.40
4578;DHT22;2301;47.354;8.528;2023-03-03T01:34:42;9.40;79.90
4578;DHT22;2301;47.354;8.528;2023-03-03T01:37:09;9.50;79.80
4578;DHT22;2301;47.354;8.528;2023-03-03T01:39:38;9.50;79.80
4578;DHT22;2301;47.354;8.528;2023-03-03T01:42:05;9.60;79.40
4578;DHT22;2301;47.354;8.528;2023-03-03T01:44:32;9.60;79.50
4578;DHT22;2301;47.354;8.528;2023-03-03T01:47:04;9.70;79.10
4578;DHT22;2301;47.354;8.528;2023-03-03T01:49:34;9.70;78.80
4578;DHT22;2301;47.354;8.528;2023-03-03T01:52:07;9.70;78.60
4578;DHT22;2301;47.354;8.528;2023-03-03T01:54:40;9.70;78.20
4578;DHT22;2301;47.354;8.528;2023-03-03T01:57:12;9.70;78.10
4578;DHT22;2301;47.354;8.528;2023-03-03T01:59:41;9.70;78.20
4578;DHT22;2301;47.354;8.528;2023-03-03T02:02:09;9.80;77.90
4578;DHT22;2301;47.354;8.528;2023-03-03T02:04:36;9.70;77.80
4578;DHT22;2301;47.354;8.528;2023-03-03T02:07:06;9.70;77.60
4578;DHT22;2301;47.354;8.528;2023-03-03T02:09:44;9.70;77.80
4578;DHT22;2301;47.354;8.528;2023-03-03T02:12:15;9.70;77.80
4578;DHT22;2301;47.354;8.528;2023-03-03T02:14:42;9.70;78.10
4578;DHT22;2301;47.354;8.528;2023-03-03T02:17:09;9.70;78.10
4578;DHT22;2301;47.354;8.528;2023-03-03T02:19:42;9.80;77.80
4578;DHT22;2301;47.354;8.528;2023-03-03T02:22:14;9.80;77.10
4578;DHT22;2301;47.354;8.528;2023-03-03T02:24:48;9.80;76.80
4578;DHT22;2301;47.354;8.528;2023-03-03T02:27:18;9.80;76.90
4578;DHT22;2301;47.354;8.528;2023-03-03T02:29:45;9.80;77.10
4578;DHT22;2301;47.354;8.528;2023-03-03T02:32:12;9.80;76.80
4578;DHT22;2301;47.354;8.528;2023-03-03T02:34:50;9.80;76.90
4578;DHT22;2301;47.354;8.528;2023-03-03T02:37:18;9.80;77.40
4578;DHT22;2301;47.354;8.528;2023-03-03T02:39:45;9.90;76.90
4578;DHT22;2301;47.354;8.528;2023-03-03T02:42:17;9.90;76.40
4578;DHT22;2301;47.354;8.528;2023-03-03T02:44:46;9.80;76.00
4578;DHT22;2301;47.354;8.528;2023-03-03T02:47:13;9.80;76.60
4578;DHT22;2301;47.354;8.528;2023-03-03T02:49:40;9.90;77.20
4578;DHT22;2301;47.354;8.528;2023-03-03T02:52:10;9.90;77.10
4578;DHT22;2301;47.354;8.528;2023-03-03T02:54:37;9.90;76.00
4578;DHT22;2301;47.354;8.528;2023-03-03T02:57:05;9.80;76.20
4578;DHT22;2301;47.354;8.528;2023-03-03T02:59:33;9.90;77.00
4578;DHT22;2301;47.354;8.528;2023-03-03T03:02:01;9.90;76.10
4578;DHT22;2301;47.354;8.528;2023-03-03T03:04:28;9.90;76.30
4578;DHT22;2301;47.354;8.528;2023-03-03T03:06:55;9.90;76.00
4578;DHT22;2301;47.354;8.528;2023-03-03T03:09:23;9.90;76.30
4578;DHT22;2301;47.354;8.528;2023-03-03T03:11:50;9.90;76.50
4578;DHT22;2301;47.354;8.528;2023-03-03T03:14:17;9.90;76.10
4578;DHT22;2301;47.354;8.528;2023-03-03T03:16:44;9.90;75.70
4578;DHT22;2301;47.354;8.528;2023-03-03T03:19:13;9.90;76.00
4578;DHT22;2301;47.354;8.528;2023-03-03T03:21:40;9.90;76.10
4578;DHT22;2301;47.354;8.528;2023-03-03T03:24:07;9.90;76.40
4578;DHT22;2301;47.354;8.528;2023-03-03T03:26:34;10.00;74.50
4578;DHT22;2301;47.354;8.528;2023-03-03T03:29:01;9.90;75.50
4578;DHT22;2301;47.354;8.528;2023-03-03T03:31:28;10.00;74.50
4578;DHT22;2301;47.354;8.528;2023-03-03T03:33:55;10.00;74.70
4578;DHT22;2301;47.354;8.528;2023-03-03T03:36:24;10.00;74.50
4578;DHT22;2301;47.354;8.528;2023-03-03T03:38:51;10.00;73.90
4578;DHT22;2301;47.354;8.528;2023-03-03T03:41:18;9.90;74.80
4578;DHT22;2301;47.354;8.528;2023-03-03T03:43:45;9.90;75.40
4578;DHT22;2301;47.354;8.528;2023-03-03T03:46:12;10.00;74.70
4578;DHT22;2301;47.354;8.528;2023-03-03T03:48:39;10.00;75.00
4578;DHT22;2301;47.354;8.528;2023-03-03T03:51:06;10.10;74.70
4578;DHT22;2301;47.354;8.528;2023-03-03T03:53:35;10.00;73.90
4578;DHT22;2301;47.354;8.528;2023-03-03T03:56:02;10.00;73.00
4578;DHT22;2301;47.354;8.528;2023-03-03T03:58:28;9.90;74.50
4578;DHT22;2301;47.354;8.528;2023-03-03T04:01:01;10.00;74.40
4578;DHT22;2301;47.354;8.528;2023-03-03T04:03:28;10.10;74.70
4578;DHT22;2301;47.354;8.528;2023-03-03T04:05:55;10.10;74.40
4578;DHT22;2301;47.354;8.528;2023-03-03T04:08:22;10.10;73.50
4578;DHT22;2301;47.354;8.528;2023-03-03T04:10:51;10.10;73.30
4578;DHT22;2301;47.354;8.528;2023-03-03T04:13:18;10.10;73.60
4578;DHT22;2301;47.354;8.528;2023-03-03T04:15:45;10.10;73.90
4578;DHT22;2301;47.354;8.528;2023-03-03T04:18:12;10.10;73.80
4578;DHT22;2301;47.354;8.528;2023-03-03T04:20:39;10.10;73.40
4578;DHT22;2301;47.354;8.528;2023-03-03T04:23:06;10.10;73.50
4578;DHT22;2301;47.354;8.528;2023-03-03T04:25:33;10.10;73.90
4578;DHT22;2301;47.354;8.528;2023-03-03T04:28:02;10.10;73.70
4578;DHT22;2301;47.354;8.528;2023-03-03T04:30:28;10.10;73.60
4578;DHT22;2301;47.354;8.528;2023-03-03T04:32:55;10.10;73.40
4578;DHT22;2301;47.354;8.528;2023-03-03T04:35:22;10.10;73.60
4578;DHT22;2301;47.354;8.528;2023-03-03T04:37:49;10.10;73.10
4578;DHT22;2301;47.354;8.528;2023-03-03T04:40:16;10.10;73.40
4578;DHT22;2301;47.354;8.528;2023-03-03T04:42:43;10.10;73.20
4578;DHT22;2301;47.354;8.528;2023-03-03T04:45:12;10.00;72.90
4578;DHT22;2301;47.354;8.528;2023-03-03T04:47:39;10.00;73.60
4578;DHT22;2301;47.354;8.528;2023-03-03T04:50:07;10.10;74.10
4578;DHT22;2301;47.354;8.528;2023-03-03T04:52:35;10.00;72.60
4578;DHT22;2301;47.354;8.528;2023-03-03T04:55:02;9.90;72.60
4578;DHT22;2301;47.354;8.528;2023-03-03T04:57:28;9.80;73.80
4578;DHT22;2301;47.354;8.528;2023-03-03T04:59:56;9.80;74.50
4578;DHT22;2301;47.354;8.528;2023-03-03T05:02:24;9.80;74.40
4578;DHT22;2301;47.354;8.528;2023-03-03T05:04:51;9.80;74.30
4578;DHT22;2301;47.354;8.528;2023-03-03T05:07:18;9.80;74.30
4578;DHT22;2301;47.354;8.528;2023-03-03T05:09:45;9.70;73.80
4578;DHT22;2301;47.354;8.528;2023-03-03T05:12:12;9.60;74.00
4578;DHT22;2301;47.354;8.528;2023-03-03T05:14:39;9.70;74.80
4578;DHT22;2301;47.354;8.528;2023-03-03T05:17:07;9.70;74.70
4578;DHT22;2301;47.354;8.528;2023-03-03T05:19:36;9.70;74.70
4578;DHT22;2301;47.354;8.528;2023-03-03T05:22:02;9.70;74.20
4578;DHT22;2301;47.354;8.528;2023-03-03T05:24:29;9.60;73.90
4578;DHT22;2301;47.354;8.528;2023-03-03T05:26:57;9.50;74.00
4578;DHT22;2301;47.354;8.528;2023-03-03T05:29:24;9.50;74.20
4578;DHT22;2301;47.354;8.528;2023-03-03T05:31:52;9.50;74.70
4578;DHT22;2301;47.354;8.528;2023-03-03T05:34:19;9.40;74.80
4578;DHT22;2301;47.354;8.528;2023-03-03T05:36:47;9.40;75.10
4578;DHT22;2301;47.354;8.528;2023-03-03T05:39:14;9.50;75.20
4578;DHT22;2301;47.354;8.528;2023-03-03T05:41:41;9.50;74.90
4578;DHT22;2301;47.354;8.528;2023-03-03T05:44:08;9.50;75.50
4578;DHT22;2301;47.354;8.528;2023-03-03T05:46:35;9.50;75.00
4578;DHT22;2301;47.354;8.528;2023-03-03T05:49:02;9.50;75.00
4578;DHT22;2301;47.354;8.528;2023-03-03T05:51:29;9.50;75.00
4578;DHT22;2301;47.354;8.528;2023-03-03T05:53:57;9.50;75.00
4578;DHT22;2301;47.354;8.528;2023-03-03T05:56:24;9.50;75.00
4578;DHT22;2301;47.354;8.528;2023-03-03T05:58:51;9.50;75.00
4578;DHT22;2301;47.354;8.528;2023-03-03T06:01:18;9.50;74.70
4578;DHT22;2301;47.354;8.528;2023-03-03T06:03:46;9.50;74.90
4578;DHT22;2301;47.354;8.528;2023-03-03T06:06:14;9.60;75.20
4578;DHT22;2301;47.354;8.528;2023-03-03T06:08:41;9.50;74.60
4578;DHT22;2301;47.354;8.528;2023-03-03T06:11:10;9.60;74.60
4578;DHT22;2301;47.354;8.528;2023-03-03T06:13:37;9.50;74.40
4578;DHT22;2301;47.354;8.528;2023-03-03T06:16:05;9.50;74.50
4578;DHT22;2301;47.354;8.528;2023-03-03T06:18:32;9.50;75.20
4578;DHT22;2301;47.354;8.528;2023-03-03T06:20:59;9.50;74.20
4578;DHT22;2301;47.354;8.528;2023-03-03T06:23:26;9.40;74.00
4578;DHT22;2301;47.354;8.528;2023-03-03T06:25:53;9.50;74.40
4578;DHT22;2301;47.354;8.528;2023-03-03T06:28:21;9.50;74.70
4578;DHT22;2301;47.354;8.528;2023-03-03T06:30:52;9.60;74.50
4578;DHT22;2301;47.354;8.528;2023-03-03T06:33:19;9.50;73.80
4578;DHT22;2301;47.354;8.528;2023-03-03T06:35:48;9.60;73.90
4578;DHT22;2301;47.354;8.528;2023-03-03T06:38:15;9.50;73.10
4578;DHT22;2301;47.354;8.528;2023-03-03T06:40:43;9.50;73.10
4578;DHT22;2301;47.354;8.528;2023-03-03T06:43:10;9.50;73.50
4578;DHT22;2301;47.354;8.528;2023-03-03T06:45:39;9.60;74.20
4578;DHT22;2301;47.354;8.528;2023-03-03T06:48:06;9.60;73.60
4578;DHT22;2301;47.354;8.528;2023-03-03T06:50:33;9.50;72.30
4578;DHT22;2301;47.354;8.528;2023-03-03T06:53:06;9.40;71.80
4578;DHT22;2301;47.354;8.528;2023-03-03T06:55:35;9.40;71.90
4578;DHT22;2301;47.354;8.528;2023-03-03T06:58:07;9.30;72.10
4578;DHT22;2301;47.354;8.528;2023-03-03T07:00:35;9.20;72.10
4578;DHT22;2301;47.354;8.528;2023-03-03T07:03:10;9.20;72.30
4578;DHT22;2301;47.354;8.528;2023-03-03T07:05:37;9.20;72.10
4578;DHT22;2301;47.354;8.528;2023-03-03T07:08:08;9.20;72.50
4578;DHT22;2301;47.354;8.528;2023-03-03T07:10:38;9.20;72.30
4578;DHT22;2301;47.354;8.528;2023-03-03T07:13:16;9.20;72.30
4578;DHT22;2301;47.354;8.528;2023-03-03T07:15:43;9.20;72.50
4578;DHT22;2301;47.354;8.528;2023-03-03T07:18:24;9.20;72.40
4578;DHT22;2301;47.354;8.528;2023-03-03T07:20:54;9.20;72.20
4578;DHT22;2301;47.354;8.528;2023-03-03T07:23:23;9.20;71.60
4578;DHT22;2301;47.354;8.528;2023-03-03T07:25:51;9.20;71.50
4578;DHT22;2301;47.354;8.528;2023-03-03T07:28:22;9.10;71.80
4578;DHT22;2301;47.354;8.528;2023-03-03T07:30:49;9.10;72.50
4578;DHT22;2301;47.354;8.528;2023-03-03T07:33:25;9.20;71.90
4578;DHT22;2301;47.354;8.528;2023-03-03T07:35:54;9.20;71.40
4578;DHT22;2301;47.354;8.528;2023-03-03T07:38:29;9.20;71.80
4578;DHT22;2301;47.354;8.528;2023-03-03T07:40:58;9.10;71.40
4578;DHT22;2301;47.354;8.528;2023-03-03T07:43:34;9.10;71.40
4578;DHT22;2301;47.354;8.528;2023-03-03T07:46:13;9.10;71.70
4578;DHT22;2301;47.354;8.528;2023-03-03T07:48:43;9.10;72.10
4578;DHT22;2301;47.354;8.528;2023-03-03T07:51:18;9.20;72.90
4578;DHT22;2301;47.354;8.528;2023-03-03T07:53:48;9.20;71.00
4578;DHT22;2301;47.354;8.528;2023-03-03T07:56:27;9.30;70.80
4578;DHT22;2301;47.354;8.528;2023-03-03T07:58:55;9.30;70.30
4578;DHT22;2301;47.354;8.528;2023-03-03T08:01:35;9.30;70.10
4578;DHT22;2301;47.354;8.528;2023-03-03T08:04:15;9.30;70.40
4578;DHT22;2301;47.354;8.528;2023-03-03T08:06:53;10.30;78.90
4578;DHT22;2301;47.354;8.528;2023-03-03T08:09:42;11.40;76.20
4578;DHT22;2301;47.354;8.528;2023-03-03T08:12:30;11.50;66.50
4578;DHT22;2301;47.354;8.528;2023-03-03T08:15:12;11.10;62.50
4578;DHT22;2301;47.354;8.528;2023-03-03T08:17:41;10.70;61.10
4578;DHT22;2301;47.354;8.528;2023-03-03T08:23:15;9.80;61.40
4578;DHT22;2301;47.354;8.528;2023-03-03T08:25:43;9.50;62.10
4578;DHT22;2301;47.354;8.528;2023-03-03T08:28:10;9.20;62.30
4578;DHT22;2301;47.354;8.528;2023-03-03T08:30:38;9.00;62.80
4578;DHT22;2301;47.354;8.528;2023-03-03T08:33:06;8.80;63.00
4578;DHT22;2301;47.354;8.528;2023-03-03T08:35:33;8.60;63.10
4578;DHT22;2301;47.354;8.528;2023-03-03T08:38:00;8.50;63.40
4578;DHT22;2301;47.354;8.528;2023-03-03T08:40:28;8.40;63.60
4578;DHT22;2301;47.354;8.528;2023-03-03T08:42:55;8.30;63.70
4578;DHT22;2301;47.354;8.528;2023-03-03T08:45:23;8.50;69.80
4578;DHT22;2301;47.354;8.528;2023-03-03T08:47:50;9.30;79.70
4578;DHT22;2301;47.354;8.528;2023-03-03T08:50:17;9.60;74.30
4578;DHT22;2301;47.354;8.528;2023-03-03T08:52:45;9.50;68.60
4578;DHT22;2301;47.354;8.528;2023-03-03T08:55:12;9.30;66.20
4578;DHT22;2301;47.354;8.528;2023-03-03T08:57:41;9.10;65.20
4578;DHT22;2301;47.354;8.528;2023-03-03T09:00:10;8.90;64.80
4578;DHT22;2301;47.354;8.528;2023-03-03T09:02:37;8.70;64.60
4578;DHT22;2301;47.354;8.528;2023-03-03T09:05:05;8.60;65.00
4578;DHT22;2301;47.354;8.528;2023-03-03T09:07:32;8.50;65.00
4578;DHT22;2301;47.354;8.528;2023-03-03T09:09:59;8.40;65.10
4578;DHT22;2301;47.354;8.528;2023-03-03T09:12:29;8.30;65.10
4578;DHT22;2301;47.354;8.528;2023-03-03T09:14:59;8.20;65.30
4578;DHT22;2301;47.354;8.528;2023-03-03T09:17:31;8.10;65.60
4578;DHT22;2301;47.354;8.528;2023-03-03T09:20:03;7.90;65.50
4578;DHT22;2301;47.354;8.528;2023-03-03T09:22:37;7.70;65.60
4578;DHT22;2301;47.354;8.528;2023-03-03T09:25:17;7.60;66.30
4578;DHT22;2301;47.354;8.528;2023-03-03T09:27:47;7.50;66.60
4578;DHT22;2301;47.354;8.528;2023-03-03T09:30:36;7.40;66.90
4578;DHT22;2301;47.354;8.528;2023-03-03T09:33:23;7.40;67.10
4578;DHT22;2301;47.354;8.528;2023-03-03T09:36:00;7.30;67.40
4578;DHT22;2301;47.354;8.528;2023-03-03T09:38:30;7.30;67.80
4578;DHT22;2301;47.354;8.528;2023-03-03T09:41:26;7.30;67.90
4578;DHT22;2301;47.354;8.528;2023-03-03T09:44:12;7.20;68.10
4578;DHT22;2301;47.354;8.528;2023-03-03T09:47:01;7.20;68.40
4578;DHT22;2301;47.354;8.528;2023-03-03T09:49:31;7.10;68.70
4578;DHT22;2301;47.354;8.528;2023-03-03T09:52:10;7.10;69.00
4578;DHT22;2301;47.354;8.528;2023-03-03T09:54:52;7.00;68.90
4578;DHT22;2301;47.354;8.528;2023-03-03T09:57:26;7.00;69.20
4578;DHT22;2301;47.354;8.528;2023-03-03T10:00:18;7.00;69.40
4578;DHT22;2301;47.354;8.528;2023-03-03T10:02:56;7.10;69.80
4578;DHT22;2301;47.354;8.528;2023-03-03T10:05:37;7.10;69.70
4578;DHT22;2301;47.354;8.528;2023-03-03T10:08:32;7.20;69.70
4578;DHT22;2301;47.354;8.528;2023-03-03T10:11:11;7.20;69.40
4578;DHT22;2301;47.354;8.528;2023-03-03T10:13:59;7.10;69.10
4578;DHT22;2301;47.354;8.528;2023-03-03T10:17:12;7.20;69.40
4578;DHT22;2301;47.354;8.528;2023-03-03T10:19:50;7.20;69.50
4578;DHT22;2301;47.354;8.528;2023-03-03T10:22:27;7.20;69.40
4578;DHT22;2301;47.354;8.528;2023-03-03T10:25:02;7.30;69.40
4578;DHT22;2301;47.354;8.528;2023-03-03T10:27:45;7.30;69.30
4578;DHT22;2301;47.354;8.528;2023-03-03T10:30:21;7.40;69.50
4578;DHT22;2301;47.354;8.528;2023-03-03T10:32:57;7.40;69.20
4578;DHT22;2301;47.354;8.528;2023-03-03T10:35:45;7.40;69.20
4578;DHT22;2301;47.354;8.528;2023-03-03T10:38:31;7.50;69.60
4578;DHT22;2301;47.354;8.528;2023-03-03T10:41:16;7.50;69.30
4578;DHT22;2301;47.354;8.528;2023-03-03T10:44:02;7.50;69.20
4578;DHT22;2301;47.354;8.528;2023-03-03T10:46:39;7.60;69.30
4578;DHT22;2301;47.354;8.528;2023-03-03T10:49:21;7.50;68.80
4578;DHT22;2301;47.354;8.528;2023-03-03T10:52:03;7.50;68.70
4578;DHT22;2301;47.354;8.528;2023-03-03T10:54:47;7.50;68.90
4578;DHT22;2301;47.354;8.528;2023-03-03T10:57:24;7.50;68.80
4578;DHT22;2301;47.354;8.528;2023-03-03T11:00:14;7.50;68.80
4578;DHT22;2301;47.354;8.528;2023-03-03T11:02:52;7.50;68.70
4578;DHT22;2301;47.354;8.528;2023-03-03T11:05:31;7.50;68.90
4578;DHT22;2301;47.354;8.528;2023-03-03T11:08:03;7.60;69.20
4578;DHT22;2301;47.354;8.528;2023-03-03T11:10:46;7.70;69.40
4578;DHT22;2301;47.354;8.528;2023-03-03T11:13:20;7.70;69.50
4578;DHT22;2301;47.354;8.528;2023-03-03T11:16:05;7.80;69.40
4578;DHT22;2301;47.354;8.528;2023-03-03T11:18:53;7.80;69.00
4578;DHT22;2301;47.354;8.528;2023-03-03T11:21:28;7.80;68.90
4578;DHT22;2301;47.354;8.528;2023-03-03T11:24:12;7.90;68.90
4578;DHT22;2301;47.354;8.528;2023-03-03T11:26:53;7.90;68.50
4578;DHT22;2301;47.354;8.528;2023-03-03T11:29:39;7.90;68.80
4578;DHT22;2301;47.354;8.528;2023-03-03T11:32:19;8.00;68.80
4578;DHT22;2301;47.354;8.528;2023-03-03T11:34:55;8.10;68.70
4578;DHT22;2301;47.354;8.528;2023-03-03T11:37:26;8.20;68.80
4578;DHT22;2301;47.354;8.528;2023-03-03T11:40:03;8.30;68.70
4578;DHT22;2301;47.354;8.528;2023-03-03T11:42:41;8.40;68.50
4578;DHT22;2301;47.354;8.528;2023-03-03T11:45:14;8.50;68.40
4578;DHT22;2301;47.354;8.528;2023-03-03T11:47:51;8.60;68.60
4578;DHT22;2301;47.354;8.528;2023-03-03T11:50:25;8.70;68.40
4578;DHT22;2301;47.354;8.528;2023-03-03T11:53:05;8.80;67.50
4578;DHT22;2301;47.354;8.528;2023-03-03T11:55:44;8.90;66.90
4578;DHT22;2301;47.354;8.528;2023-03-03T11:58:18;8.80;66.70
4578;DHT22;2301;47.354;8.528;2023-03-03T12:00:50;8.80;66.20
4578;DHT22;2301;47.354;8.528;2023-03-03T12:03:24;8.70;66.30
4578;DHT22;2301;47.354;8.528;2023-03-03T12:05:56;8.80;66.70
4578;DHT22;2301;47.354;8.528;2023-03-03T12:08:43;8.80;66.60
4578;DHT22;2301;47.354;8.528;2023-03-03T12:11:20;8.90;66.70
4578;DHT22;2301;47.354;8.528;2023-03-03T12:13:55;8.90;66.50
4578;DHT22;2301;47.354;8.528;2023-03-03T12:16:37;8.90;66.00
4578;DHT22;2301;47.354;8.528;2023-03-03T12:19:27;8.90;65.70
4578;DHT22;2301;47.354;8.528;2023-03-03T12:22:10;8.90;65.60
4578;DHT22;2301;47.354;8.528;2023-03-03T12:24:50;8.80;65.50
4578;DHT22;2301;47.354;8.528;2023-03-03T12:27:29;8.80;66.00
4578;DHT22;2301;47.354;8.528;2023-03-03T12:30:09;8.80;66.00
4578;DHT22;2301;47.354;8.528;2023-03-03T12:32:49;8.90;66.40
4578;DHT22;2301;47.354;8.528;2023-03-03T12:35:27;9.00;67.10
4578;DHT22;2301;47.354;8.528;2023-03-03T12:38:02;9.00;65.80
4578;DHT22;2301;47.354;8.528;2023-03-03T12:40:33;9.00;65.90
4578;DHT22;2301;47.354;8.528;2023-03-03T12:43:22;9.10;66.00
4578;DHT22;2301;47.354;8.528;2023-03-03T12:45:58;9.20;65.70
4578;DHT22;2301;47.354;8.528;2023-03-03T12:48:35;9.30;65.70
4578;DHT22;2301;47.354;8.528;2023-03-03T12:51:05;9.40;65.90
4578;DHT22;2301;47.354;8.528;2023-03-03T12:53:54;9.40;65.70
4578;DHT22;2301;47.354;8.528;2023-03-03T12:56:29;9.50;65.60
4578;DHT22;2301;47.354;8.528;2023-03-03T12:59:04;9.60;65.90
4578;DHT22;2301;47.354;8.528;2023-03-03T13:01:47;9.70;65.70
4578;DHT22;2301;47.354;8.528;2023-03-03T13:04:29;9.80;65.30
4578;DHT22;2301;47.354;8.528;2023-03-03T13:07:04;9.90;65.40
4578;DHT22;2301;47.354;8.528;2023-03-03T13:09:49;10.10;64.50
4578;DHT22;2301;47.354;8.528;2023-03-03T13:12:30;10.30;63.60
4578;DHT22;2301;47.354;8.528;2023-03-03T13:15:12;10.30;62.60
4578;DHT22;2301;47.354;8.528;2023-03-03T13:17:53;10.40;62.60
4578;DHT22;2301;47.354;8.528;2023-03-03T13:20:27;10.50;62.90
4578;DHT22;2301;47.354;8.528;2023-03-03T13:23:02;10.50;62.80
4578;DHT22;2301;47.354;8.528;2023-03-03T13:25:46;10.70;62.80
4578;DHT22;2301;47.354;8.528;2023-03-03T13:28:21;10.80;62.80
4578;DHT22;2301;47.354;8.528;2023-03-03T13:30:55;11.00;62.60
4578;DHT22;2301;47.354;8.528;2023-03-03T13:33:26;11.10;62.20
4578;DHT22;2301;47.354;8.528;2023-03-03T13:35:55;11.20;62.10
4578;DHT22;2301;47.354;8.528;2023-03-03T13:38:27;11.30;61.70
4578;DHT22;2301;47.354;8.528;2023-03-03T13:41:01;11.40;61.20
4578;DHT22;2301;47.354;8.528;2023-03-03T13:43:33;11.50;60.70
4578;DHT22;2301;47.354;8.528;2023-03-03T13:46:07;11.60;60.60
4578;DHT22;2301;47.354;8.528;2023-03-03T13:48:59;11.70;60.10
4578;DHT22;2301;47.354;8.528;2023-03-03T13:51:36;11.80;60.10
4578;DHT22;2301;47.354;8.528;2023-03-03T13:54:25;11.90;59.60
4578;DHT22;2301;47.354;8.528;2023-03-03T13:57:16;12.00;59.40
4578;DHT22;2301;47.354;8.528;2023-03-03T13:59:54;12.10;59.10
4578;DHT22;2301;47.354;8.528;2023-03-03T14:02:42;12.10;58.50
4578;DHT22;2301;47.354;8.528;2023-03-03T14:05:15;12.10;58.40
4578;DHT22;2301;47.354;8.528;2023-03-03T14:07:48;12.00;58.00
4578;DHT22;2301;47.354;8.528;2023-03-03T14:10:20;11.90;58.20
4578;DHT22;2301;47.354;8.528;2023-03-03T14:12:58;11.90;58.10
4578;DHT22;2301;47.354;8.528;2023-03-03T14:15:29;12.00;58.50
4578;DHT22;2301;47.354;8.528;2023-03-03T14:18:14;11.90;58.60
4578;DHT22;2301;47.354;8.528;2023-03-03T14:20:46;11.90;58.90
4578;DHT22;2301;47.354;8.528;2023-03-03T14:23:18;12.00;59.00
4578;DHT22;2301;47.354;8.528;2023-03-03T14:25:59;11.90;58.60
4578;DHT22;2301;47.354;8.528;2023-03-03T14:28:38;11.80;58.50
4578;DHT22;2301;47.354;8.528;2023-03-03T14:31:14;11.60;58.50
4578;DHT22;2301;47.354;8.528;2023-03-03T14:33:55;11.60;59.10
4578;DHT22;2301;47.354;8.528;2023-03-03T14:36:27;11.50;59.20
4578;DHT22;2301;47.354;8.528;2023-03-03T14:38:54;11.50;59.40
4578;DHT22;2301;47.354;8.528;2023-03-03T14:41:34;11.40;59.30
4578;DHT22;2301;47.354;8.528;2023-03-03T14:44:22;11.30;59.40
4578;DHT22;2301;47.354;8.528;2023-03-03T14:47:02;11.30;59.60
4578;DHT22;2301;47.354;8.528;2023-03-03T14:49:34;11.10;59.60
4578;DHT22;2301;47.354;8.528;2023-03-03T14:52:04;11.00;59.90
4578;DHT22;2301;47.354;8.528;2023-03-03T14:54:38;11.00;60.20
4578;DHT22;2301;47.354;8.528;2023-03-03T14:57:11;11.00;60.30
4578;DHT22;2301;47.354;8.528;2023-03-03T14:59:54;11.00;60.20
4578;DHT22;2301;47.354;8.528;2023-03-03T15:02:34;11.00;60.40
4578;DHT22;2301;47.354;8.528;2023-03-03T15:05:19;11.00;61.00
4578;DHT22;2301;47.354;8.528;2023-03-03T15:07:50;10.90;61.00
4578;DHT22;2301;47.354;8.528;2023-03-03T15:10:30;10.80;61.00
4578;DHT22;2301;47.354;8.528;2023-03-03T15:12:58;10.80;61.30
4578;DHT22;2301;47.354;8.528;2023-03-03T15:15:33;10.80;61.50
4578;DHT22;2301;47.354;8.528;2023-03-03T15:18:01;10.70;61.40
4578;DHT22;2301;47.354;8.528;2023-03-03T15:20:41;10.60;61.60
4578;DHT22;2301;47.354;8.528;2023-03-03T15:23:24;10.60;61.80
4578;DHT22;2301;47.354;8.528;2023-03-03T15:25:58;10.60;62.00
4578;DHT22;2301;47.354;8.528;2023-03-03T15:28:42;10.50;62.30
4578;DHT22;2301;47.354;8.528;2023-03-03T15:31:21;10.40;62.20
4578;DHT22;2301;47.354;8.528;2023-03-03T15:34:04;10.40;62.40
4578;DHT22;2301;47.354;8.528;2023-03-03T15:36:44;10.40;62.50
4578;DHT22;2301;47.354;8.528;2023-03-03T15:39:18;10.40;62.60
4578;DHT22;2301;47.354;8.528;2023-03-03T15:41:54;10.30;62.70
4578;DHT22;2301;47.354;8.528;2023-03-03T15:44:30;10.20;63.00
4578;DHT22;2301;47.354;8.528;2023-03-03T15:47:17;10.20;63.30
4578;DHT22;2301;47.354;8.528;2023-03-03T15:50:06;10.20;63.60
4578;DHT22;2301;47.354;8.528;2023-03-03T15:52:45;10.10;63.80
4578;DHT22;2301;47.354;8.528;2023-03-03T15:55:25;10.20;63.80
4578;DHT22;2301;47.354;8.528;2023-03-03T15:58:07;10.20;63.90
4578;DHT22;2301;47.354;8.528;2023-03-03T16:00:47;10.10;64.10
4578;DHT22;2301;47.354;8.528;2023-03-03T16:03:20;10.00;65.10
4578;DHT22;2301;47.354;8.528;2023-03-03T16:05:53;10.00;64.80
4578;DHT22;2301;47.354;8.528;2023-03-03T16:08:27;10.00;65.10
4578;DHT22;2301;47.354;8.528;2023-03-03T16:11:03;9.90;66.30
4578;DHT22;2301;47.354;8.528;2023-03-03T16:13:58;10.00;65.30
4578;DHT22;2301;47.354;8.528;2023-03-03T16:16:37;10.00;65.10
4578;DHT22;2301;47.354;8.528;2023-03-03T16:19:17;9.90;66.30
4578;DHT22;2301;47.354;8.528;2023-03-03T16:22:09;9.90;66.40
4578;DHT22;2301;47.354;8.528;2023-03-03T16:24:48;9.90;66.50
4578;DHT22;2301;47.354;8.528;2023-03-03T16:27:21;9.90;66.60
4578;DHT22;2301;47.354;8.528;2023-03-03T16:30:02;9.90;67.50
4578;DHT22;2301;47.354;8.528;2023-03-03T16:32:36;9.80;66.60
4578;DHT22;2301;47.354;8.528;2023-03-03T16:35:18;9.80;66.60
4578;DHT22;2301;47.354;8.528;2023-03-03T16:37:55;9.90;66.80
4578;DHT22;2301;47.354;8.528;2023-03-03T16:40:26;9.80;66.80
4578;DHT22;2301;47.354;8.528;2023-03-03T16:42:59;9.80;66.80
4578;DHT22;2301;47.354;8.528;2023-03-03T16:45:33;9.70;66.90
4578;DHT22;2301;47.354;8.528;2023-03-03T16:48:19;9.70;67.80
4578;DHT22;2301;47.354;8.528;2023-03-03T16:50:55;9.70;67.40
4578;DHT22;2301;47.354;8.528;2023-03-03T16:53:45;9.60;67.60
4578;DHT22;2301;47.354;8.528;2023-03-03T16:56:18;9.60;68.00
4578;DHT22;2301;47.354;8.528;2023-03-03T16:59:00;9.50;68.20